Aviation Digital Data Service (ADDS)

Output produced by METARs form (2314 UTC 18 August 2019)
found at http://www.aviationweather.gov/metar/data/
 
Forecast for: ZSAM (XIAMEN , CN)
Text: TAF ZSAM 181908Z 1900/1924 08004MPS 6000 SCT033 TX31/1906Z TN26/1921Z
Forecast period: 0000 UTC 19 August 2019 to 0000 UTC 20 August 2019
Forecast type: FROM: standard forecast or significant change
Winds: from the E (80 degrees) at 9 MPH (8 knots; 4.1 m/s)
Visibility: 4 miles (6 km)
Ceiling: at least 12,000 feet AGL
Clouds: scattered clouds at 3300 feet AGL
Weather: no significant weather forecast for this period
Text: PROB40
Forecast period: 0000 to 0600 UTC 19 August 2019
Forecast type: TEMPORARY: The following changes expected for less than half the time period
Visibility: missing
Ceiling: 2300 feet AGL
Clouds: few clouds at 2300 feet AGL
broken clouds at 2300 feet AGL
Weather: SHRA  (rain showers)